createdAt,value
2023-04-08T00:04:02.718Z,1023.3
2023-04-08T00:09:43.913Z,1023.4
2023-04-08T00:15:05.848Z,1023.4
2023-04-08T00:20:47.119Z,1023.3
2023-04-08T00:26:16.729Z,1023.3
2023-04-08T00:31:49.516Z,1023.3
2023-04-08T00:37:26.658Z,1023.4
2023-04-08T00:42:58.595Z,1023.4
2023-04-08T00:48:24.632Z,1023.3
2023-04-08T00:53:59.797Z,1023.2
2023-04-08T00:59:26.128Z,1023.3
2023-04-08T01:05:02.925Z,1023.3
2023-04-08T01:10:49.391Z,1023.4
2023-04-08T01:16:32.260Z,1023.3
2023-04-08T01:21:52.710Z,1023.3
2023-04-08T01:27:19.648Z,1023.2
2023-04-08T01:32:58.288Z,1023.2
2023-04-08T01:38:21.046Z,1023.1
2023-04-08T01:43:58.358Z,1023.1
2023-04-08T01:49:35.238Z,1023
2023-04-08T01:54:58.644Z,1023.1
2023-04-08T02:00:34.205Z,1023.3
2023-04-08T02:11:36.902Z,1023.1
2023-04-08T02:17:28.434Z,1023.2
2023-04-08T02:22:45.304Z,1023.3
2023-04-08T02:28:17.983Z,1023.4
2023-04-08T02:33:52.251Z,1023.5
2023-04-08T02:39:25.335Z,1023.5
2023-04-08T02:45:10.957Z,1023.4
2023-04-08T02:50:41.517Z,1023.5
2023-04-08T02:55:58.241Z,1023.5
2023-04-08T03:01:52.794Z,1023.5
2023-04-08T03:07:25.496Z,1023.5
2023-04-08T03:12:57.454Z,1023.5
2023-04-08T03:18:12.468Z,1023.5
2023-04-08T03:23:48.128Z,1023.5
2023-04-08T03:29:29.564Z,1023.6
2023-04-08T03:35:10.749Z,1023.6
2023-04-08T03:40:28.306Z,1023.7
2023-04-08T03:51:48.244Z,1023.7
2023-04-08T03:57:20.095Z,1023.7
2023-04-08T04:02:52.447Z,1023.7
2023-04-08T04:08:18.194Z,1023.7
2023-04-08T04:14:05.503Z,1023.7
2023-04-08T04:19:34.363Z,1023.8
2023-04-08T04:24:59.603Z,1023.8
2023-04-08T04:30:19.849Z,1023.8
2023-04-08T04:36:00.749Z,1023.8
2023-04-08T04:41:29.473Z,1023.9
2023-04-08T04:47:09.799Z,1023.9
2023-04-08T04:52:39.104Z,1023.9
2023-04-08T04:58:02.405Z,1024
2023-04-08T05:03:35.940Z,1024
2023-04-08T05:09:11.275Z,1024
2023-04-08T05:14:40.976Z,1024.1
2023-04-08T05:20:23.463Z,1024.1
2023-04-08T05:31:19.684Z,1024.3
2023-04-08T05:36:57.078Z,1024.3
2023-04-08T05:42:34.132Z,1024.4
2023-04-08T05:48:20.890Z,1024.3
2023-04-08T05:53:28.314Z,1024.5
2023-04-08T05:59:27.551Z,1024.4
2023-04-08T06:04:54.167Z,1024.5
2023-04-08T06:10:18.712Z,1024.5
2023-04-08T06:21:30.335Z,1024.6
2023-04-08T06:27:06.716Z,1024.5
2023-04-08T06:32:25.828Z,1024.4
2023-04-08T06:37:52.475Z,1024.4
2023-04-08T06:43:27.637Z,1024.3
2023-04-08T06:49:16.666Z,1024.4
2023-04-08T06:54:55.587Z,1024.3
2023-04-08T07:00:14.887Z,1024.3
2023-04-08T07:05:54.109Z,1024.2
2023-04-08T07:11:17.162Z,1024.2
2023-04-08T07:17:09.987Z,1024.1
2023-04-08T07:22:46.880Z,1023.9
2023-04-08T07:28:03.074Z,1023.7
2023-04-08T07:33:28.693Z,1023.6
2023-04-08T07:39:07.642Z,1023.6
2023-04-08T07:44:36.764Z,1023.5
2023-04-08T07:50:17.063Z,1023.6
2023-04-08T07:55:50.137Z,1023.5
2023-04-08T08:07:00.894Z,1023.7
2023-04-08T08:12:52.739Z,1023.5
2023-04-08T08:18:29.019Z,1023.5
2023-04-08T08:23:51.292Z,1023.2
2023-04-08T08:29:29.696Z,1023.3
2023-04-08T08:35:04.007Z,1023.4
2023-04-08T08:40:42.440Z,1023.3
2023-04-08T08:46:00.474Z,1023.3
2023-04-08T08:51:39.442Z,1023.5
2023-04-08T08:57:14.884Z,1023.4
2023-04-08T09:03:07.530Z,1023.4
2023-04-08T09:08:22.787Z,1023.5
2023-04-08T09:14:00.738Z,1023.6
2023-04-08T09:19:46.736Z,1023.5
2023-04-08T09:25:22.902Z,1023.6
2023-04-08T09:30:46.575Z,1023.5
2023-04-08T09:36:20.605Z,1023.5
2023-04-08T09:42:08.607Z,1023.6
2023-04-08T09:47:31.140Z,1023.5
2023-04-08T09:53:13.878Z,1023.5
2023-04-08T09:58:49.340Z,1023.5
2023-04-08T10:04:19.136Z,1023.4
2023-04-08T10:09:58.778Z,1023.5
2023-04-08T10:15:23.959Z,1023.5
2023-04-08T10:26:34.661Z,1023.5
2023-04-08T10:32:09.292Z,1023.4
2023-04-08T10:37:43.041Z,1023.3
2023-04-08T10:43:28.995Z,1023.4
2023-04-08T10:49:04.680Z,1023.4
2023-04-08T10:54:30.310Z,1023.4
2023-04-08T11:00:27.436Z,1023.4
2023-04-08T11:05:58.653Z,1023.4
2023-04-08T11:11:24.394Z,1023.3
2023-04-08T11:16:49.858Z,1023.3
2023-04-08T11:22:47.137Z,1023.1
2023-04-08T11:28:24.290Z,1023
2023-04-08T11:33:37.170Z,1023
2023-04-08T11:39:32.309Z,1023
2023-04-08T11:45:10.666Z,1022.8
2023-04-08T11:50:43.262Z,1022.8
2023-04-08T11:56:17.887Z,1022.7
2023-04-08T12:01:37.004Z,1022.6
2023-04-08T12:07:23.198Z,1022.8
2023-04-08T12:12:43.063Z,1022.8
2023-04-08T12:18:38.017Z,1022.8
2023-04-08T12:24:01.474Z,1022.7
2023-04-08T12:29:29.313Z,1022.7
2023-04-08T12:35:26.603Z,1022.7
2023-04-08T12:46:10.434Z,1022.7
2023-04-08T12:52:11.773Z,1022.7
2023-04-08T12:57:40.339Z,1022.8
2023-04-08T13:03:20.871Z,1022.8
2023-04-08T13:14:08.185Z,1022.7
2023-04-08T13:19:48.964Z,1022.6
2023-04-08T13:25:33.121Z,1022.5
2023-04-08T13:36:26.155Z,1022.3
2023-04-08T13:42:13.405Z,1022.3
2023-04-08T13:47:45.220Z,1022.2
2023-04-08T13:53:15.869Z,1022.3
2023-04-08T13:58:57.842Z,1022.1
2023-04-08T14:10:17.259Z,1022
2023-04-08T14:15:47.091Z,1022.1
2023-04-08T14:21:29.425Z,1022.2
2023-04-08T14:32:34.773Z,1022
2023-04-08T14:38:07.148Z,1022
2023-04-08T14:43:35.576Z,1021.9
2023-04-08T14:49:11.284Z,1022
2023-04-08T14:54:49.100Z,1021.8
2023-04-08T15:00:46.325Z,1022
2023-04-08T15:11:46.685Z,1021.9
2023-04-08T15:17:39.521Z,1021.8
2023-04-08T15:23:20.588Z,1021.8
2023-04-08T15:28:32.913Z,1021.9
2023-04-08T15:34:30.217Z,1021.8
2023-04-08T15:39:55.458Z,1022
2023-04-08T15:45:19.076Z,1022
2023-04-08T15:51:00.003Z,1021.8
2023-04-08T15:56:29.092Z,1022
2023-04-08T16:02:07.228Z,1022.1
2023-04-08T16:07:58.044Z,1022.3
2023-04-08T16:13:30.447Z,1022.4
2023-04-08T16:18:48.437Z,1022.4
2023-04-08T16:24:28.218Z,1022.2
2023-04-08T16:30:17.450Z,1022.3
2023-04-08T16:46:54.486Z,1022.4
2023-04-08T16:52:25.682Z,1022.4
2023-04-08T16:58:04.600Z,1022.4
2023-04-08T17:03:34.702Z,1022.5
2023-04-08T17:09:31.802Z,1022.4
2023-04-08T17:14:40.090Z,1022.2
2023-04-08T17:20:42.696Z,1022.4
2023-04-08T17:26:03.751Z,1022.4
2023-04-08T17:31:36.440Z,1022.5
2023-04-08T17:37:05.486Z,1022.6
2023-04-08T17:42:38.589Z,1022.7
2023-04-08T17:48:26.559Z,1023
2023-04-08T17:53:59.762Z,1023.1
2023-04-08T17:59:29.935Z,1023.3
2023-04-08T18:05:17.565Z,1023.4
2023-04-08T18:10:47.426Z,1023.5
2023-04-08T18:22:03.095Z,1023.7
2023-04-08T18:27:11.907Z,1023.7
2023-04-08T18:33:10.336Z,1023.8
2023-04-08T18:38:34.152Z,1023.8
2023-04-08T18:43:58.654Z,1024
2023-04-08T18:49:53.774Z,1023.9
2023-04-08T18:55:06.717Z,1024
2023-04-08T19:00:50.339Z,1024.1
2023-04-08T19:11:52.261Z,1024.4
2023-04-08T19:17:33.571Z,1024.6
2023-04-08T19:23:18.657Z,1024.7
2023-04-08T19:28:45.196Z,1024.7
2023-04-08T19:33:59.672Z,1024.8
2023-04-08T19:39:56.272Z,1025
2023-04-08T19:45:08.413Z,1025.1
2023-04-08T19:50:52.421Z,1025.2
2023-04-08T20:01:51.930Z,1025.5
2023-04-08T20:07:30.869Z,1025.4
2023-04-08T20:13:18.960Z,1025.5
2023-04-08T20:18:33.625Z,1025.6
2023-04-08T20:24:10.937Z,1025.6
2023-04-08T20:29:57.666Z,1025.6
2023-04-08T20:35:24.160Z,1025.7
2023-04-08T20:41:03.959Z,1025.7
2023-04-08T20:46:18.331Z,1025.7
2023-04-08T20:52:01.406Z,1025.6
2023-04-08T20:57:51.437Z,1025.5
2023-04-08T21:03:14.140Z,1025.5
2023-04-08T21:08:42.103Z,1025.5
2023-04-08T21:14:29.335Z,1025.4
2023-04-08T21:19:38.193Z,1025.3
2023-04-08T21:25:22.435Z,1025.3
2023-04-08T21:30:45.694Z,1025.3
2023-04-08T21:36:22.066Z,1025.3
2023-04-08T21:42:06.643Z,1025.4
2023-04-08T21:47:41.635Z,1025.4
2023-04-08T21:53:11.916Z,1025.6
2023-04-08T21:58:57.053Z,1025.5
2023-04-08T22:04:06.778Z,1025.5
2023-04-08T22:10:01.952Z,1025.6
2023-04-08T22:15:28.955Z,1025.5
2023-04-08T22:21:07.254Z,1025.6
2023-04-08T22:32:10.942Z,1025.6
2023-04-08T22:37:35.966Z,1025.7
2023-04-08T22:43:16.980Z,1025.7
2023-04-08T22:48:52.272Z,1025.7
2023-04-08T22:54:02.634Z,1025.7
2023-04-08T22:59:36.635Z,1025.5
2023-04-08T23:05:17.000Z,1025.4
2023-04-08T23:21:49.224Z,1025.4
2023-04-08T23:27:30.060Z,1025.4
2023-04-08T23:33:06.345Z,1025.3
2023-04-08T23:38:36.750Z,1025.3
2023-04-08T23:44:04.153Z,1025.3
2023-04-08T23:49:48.276Z,1025.3
2023-04-08T23:55:07.742Z,1025.3
